Flight Track Log - Related Links

Times and Time Zones

All times are in EST time to prevent confusion due to time zone crossing. See the DAL3860 flight status page for this flight to view local times or setup timezone preferences in your user account.

Time Position Orientation Groundspeed Altitude Reporting Facility
EST Latitude Longitude Course Direction KTS MPH feet Rate Location/Type
Wed 04:49:53 PM 44.8289 -93.2272 130° Southeast 147 169 3,100  Level Minneapolis Center
Wed 04:50:55 PM 44.7642 -93.2117 170° South 235 270 4,000 1,839 Climbing Minneapolis Center
Wed 04:51:57 PM 44.6969 -93.2664 210° Southwest 252 290 6,900 2,565 Climbing Minneapolis Center
Wed 04:52:59 PM 44.6314 -93.3144 208° Southwest 268 308 9,300 1,887 Climbing Minneapolis Center
Wed 04:54:01 PM 44.5711 -93.2011 127° Southeast 356 410 10,800 1,548 Climbing Minneapolis Center
Wed 04:55:00 PM 44.4691 -92.5258 130° Southeast  Level Estimated
Wed 04:55:03 PM 44.5375 -93.0636 109° East 378 435 12,500  Level Minneapolis Center
Wed 04:56:05 PM 44.5039 -92.9194 108° East 391 450 14,300 1,680 Climbing Minneapolis Center
Wed 04:57:08 PM 44.4700 -92.7722 108° East 399 459 16,000 1,296 Climbing Minneapolis Center
Wed 04:58:10 PM 44.4192 -92.6308 117° Southeast 409 471 17,000 528 Climbing Minneapolis Center
Wed 04:59:13 PM 44.3433 -92.4567 121° Southeast 438 504 17,100 432 Climbing Minneapolis Center
Wed 05:00:15 PM 44.2789 -92.3092 121° Southeast 445 512 17,900 823 Climbing Minneapolis Center
Wed 05:01:17 PM 44.2150 -92.1586 121° Southeast 450 518 18,800 919 Climbing Minneapolis Center
Wed 05:02:19 PM 44.1483 -92.0078 122° Southeast 455 524 19,800 968 Climbing Minneapolis Center
Wed 05:03:21 PM 44.0825 -91.8592 122° Southeast 455 524 20,800 968 Climbing Minneapolis Center
Wed 05:04:23 PM 44.0167 -91.7086 121° Southeast 455 524 21,800 1,065 Climbing Minneapolis Center
Wed 05:05:25 PM 43.9386 -91.5297 121° Southeast 454 522 23,000 919 Climbing Minneapolis Center
Wed 05:06:27 PM 43.8622 -91.3964 128° Southeast 451 519 23,700 581 Climbing Minneapolis Center
Wed 05:07:29 PM 43.7736 -91.2767 136° Southeast 447 514 24,200 484 Climbing Minneapolis Center
Wed 05:08:31 PM 43.6850 -91.1528 135° Southeast 451 519 24,700 484 Climbing Minneapolis Center
Wed 05:09:33 PM 43.5964 -91.0281 134° Southeast 455 524 25,200 484 Climbing Minneapolis Center
Wed 05:10:35 PM 43.5064 -90.9025 135° Southeast 459 528 25,700 532 Climbing Minneapolis Center
Wed 05:11:37 PM 43.3978 -90.7544 135° Southeast 459 528 26,300 532 Climbing Minneapolis Center
Wed 05:12:39 PM 43.3067 -90.6297 135° Southeast 462 532 26,800 488 Climbing Minneapolis Center
Wed 05:13:40 PM 43.2172 -90.5064 135° Southeast 459 528 27,300 537 Climbing Minneapolis Center
Wed 05:14:42 PM 43.1267 -90.3833 135° Southeast 459 528 27,900 532 Climbing Minneapolis Center
Wed 05:15:44 PM 43.0353 -90.2622 136° Southeast 460 529 28,400 484 Climbing Minneapolis Center
Wed 05:16:46 PM 42.9397 -90.1333 135° Southeast 455 524 28,900 484 Climbing Minneapolis Center
Wed 05:17:48 PM 42.8517 -90.0150 135° Southeast 451 519 29,400 513 Climbing Minneapolis Center
Wed 05:19:18 PM 42.7050 -89.8208 136° Southeast 456 525 30,200 513 Climbing Chicago Center
Wed 05:20:20 PM 42.6156 -89.7031 136° Southeast 452 520 30,700 384 Climbing Chicago Center
Wed 05:21:23 PM 42.5264 -89.5864 136° Southeast 448 516 31,000 144 Climbing Chicago Center
Wed 05:22:25 PM 42.4369 -89.4683 136° Southeast 452 520 31,000  Level Chicago Center
Wed 05:23:27 PM 42.3297 -89.3283 136° Southeast 450 518 31,000  Level Chicago Center
Wed 05:24:29 PM 42.2417 -89.2131 136° Southeast 445 512 31,000  Level Chicago Center
Wed 05:25:31 PM 42.1533 -89.0992 136° Southeast 442 509 31,000  Level Chicago Center
Wed 05:26:33 PM 42.0600 -88.9792 136° Southeast 444 511 31,000  Level Chicago Center
Wed 05:27:35 PM 41.9725 -88.8647 136° Southeast 442 509 31,000  Level Chicago Center
Wed 05:28:37 PM 41.8839 -88.7514 136° Southeast 442 509 31,000  Level Chicago Center
Wed 05:29:39 PM 41.7958 -88.6383 136° Southeast 441 507 31,000  Level Chicago Center
Wed 05:30:41 PM 41.6897 -88.5019 136° Southeast 442 509 31,000 -432 Level Chicago Center
Wed 05:31:44 PM 41.6019 -88.3881 136° Southeast 443 510 30,100 -960 Descending Chicago Center
Wed 05:32:46 PM 41.5136 -88.2750 136° Southeast 443 510 29,000 -532 Descending Chicago Center
Wed 05:33:48 PM 41.4261 -88.1628 136° Southeast 446 513 29,000  Level Chicago Center
Wed 05:34:50 PM 41.3236 -88.0331 136° Southeast 446 513 29,000  Level Chicago Center
Wed 05:35:52 PM 41.2342 -87.9194 136° Southeast 448 516 29,000  Level Chicago Center
Wed 05:36:54 PM 41.1444 -87.8050 136° Southeast 450 518 29,000  Level Chicago Center
Wed 05:37:56 PM 41.0531 -87.6908 137° Southeast 452 520 29,000 -242 Level Chicago Center
Wed 05:38:58 PM 40.9442 -87.5531 136° Southeast 454 522 28,500 -726 Descending Chicago Center
Wed 05:40:00 PM 40.8539 -87.4406 137° Southeast 450 518 27,500 -726 Descending Chicago Center
Wed 05:41:02 PM 40.7631 -87.3269 137° Southeast 452 520 27,000 -240 Descending Chicago Center
Wed 05:42:05 PM 40.6728 -87.2142 137° Southeast 448 516 27,000  Level Chicago Center
Wed 05:43:07 PM 40.5819 -87.1036 137° Southeast 448 516 27,000  Level Chicago Center
Wed 05:44:09 PM 40.4728 -87.0194 150° Southeast 465 535 27,000 -194 Level Chicago Center
Wed 05:45:11 PM 40.3408 -86.9244 151° Southeast 463 533 26,600 -823 Descending Chicago Center
Wed 05:46:13 PM 40.2397 -86.8175 141° Southeast 467 537 25,300 -1,258 Descending Chicago Center
Wed 05:47:15 PM 40.1433 -86.7158 141° Southeast 466 536 24,000 -1,113 Descending Chicago Center
Wed 05:48:17 PM 40.0453 -86.6122 141° Southeast 458 527 23,000 -484 Descending Chicago Center
Wed 05:49:19 PM 39.9522 -86.5144 141° Southeast 438 504 23,000 -871 Level Chicago Center
Wed 05:50:21 PM 39.8392 -86.3953 141° Southeast 453 521 21,200 -1,742 Descending Chicago Center
Wed 05:51:23 PM 39.7769 -86.2572 120° Southeast 461 531 19,400 -1,500 Descending Chicago Center
Wed 05:52:25 PM 39.7300 -86.1150 113° Southeast 440 506 18,100 -1,552 Descending Chicago Center
Wed 05:53:19 PM 39.6833 -85.9833 115° Southeast 417 480 16,400 -1,842 Descending Indianapolis TRACON
Wed 05:54:19 PM 39.6333 -85.8500 116° Southeast 403 464 14,600 -1,450 Descending Indianapolis TRACON
Wed 05:55:19 PM 39.6000 -85.7167 108° East 379 436 13,500 -1,067 Descending Indianapolis TRACON
Wed 05:55:49 PM 39.5814 -85.6758 121° Southeast 391 450 13,000 -1,370 Descending Indianapolis Center
Wed 05:56:51 PM 39.5392 -85.5500 113° Southeast 374 430 11,400 -968 Descending Indianapolis Center
Wed 05:57:53 PM 39.4786 -85.4133 120° Southeast 370 426 11,000 -532 Descending Indianapolis Center
Wed 05:58:55 PM 39.4369 -85.3078 117° Southeast 347 399 10,300 -823 Descending Indianapolis Center
Wed 05:59:57 PM 39.4064 -85.2142 113° Southeast 313 360 9,300 -968 Descending Indianapolis Center
Wed 06:00:59 PM 39.3753 -85.1206 113° Southeast 296 341 8,300 -968 Descending Indianapolis Center
Wed 06:02:01 PM 39.3450 -85.0281 113° Southeast 288 331 7,300 -968 Descending Indianapolis Center
Wed 06:03:03 PM 39.3136 -84.9375 114° Southeast 283 326 6,300 -1,065 Descending Indianapolis Center
Wed 06:04:05 PM 39.2789 -84.8303 113° Southeast 277 319 5,100 -1,065 Descending Indianapolis Center
Wed 06:05:07 PM 39.2486 -84.7519 117° Southeast 260 299 4,100 -581 Descending Indianapolis Center
Wed 06:06:09 PM 39.2042 -84.7047 141° Southeast 250 288 3,900 -654 Descending Indianapolis Center
Wed 06:07:43 PM 39.1333 -84.6667 157° South 143 165 2,400 -892 Descending Cincinnati TRACON
Wed 06:08:37 PM 39.1000 -84.6667 180° South 133 153 1,700 -778 Descending Cincinnati TRACON
Wed 06:10:00 PM 39.0488 -84.6678 180° South  Level Estimated
Wed 06:17:00 PM 39.0488 -84.6678 North  Level Estimated

Login

Don't have an account? Register now (free) for customized features, flight alerts, and more!